Time;durP1;ratioP1;P1;durP2;ratioP2;P2;SDS_P1;SDS_P2;PMS_P1;PMS_P2;Temp;Humidity;BMP_temperature;BMP_pressure;BME280_temperature;BME280_humidity;BME280_pressure;Samples;Min_cycle;Max_cycle;Signal;HPM_P1;HPM_P2
2023/07/23 00:01:01;;;;;;;7.25;5.38;;;15.00;99.90;;;;;;5053404;28;20071;-67
2023/07/23 00:03:27;;;;;;;7.38;5.28;;;15.00;99.90;;;;;;5053640;28;20174;-68
2023/07/23 00:05:53;;;;;;;7.93;5.72;;;15.00;99.90;;;;;;5053381;28;20048;-67
2023/07/23 00:08:18;;;;;;;8.98;6.03;;;15.00;99.90;;;;;;5036432;28;20036;-67
2023/07/23 00:10:44;;;;;;;7.35;5.05;;;15.00;99.90;;;;;;5036482;28;20124;-67
2023/07/23 00:13:10;;;;;;;7.35;5.70;;;15.00;99.90;;;;;;5035452;28;20059;-68
2023/07/23 00:15:36;;;;;;;10.30;5.90;;;15.00;99.90;;;;;;5053393;28;20120;-67
2023/07/23 00:18:02;;;;;;;7.65;5.93;;;15.00;99.90;;;;;;5053374;28;20508;-67
2023/07/23 00:20:27;;;;;;;8.35;6.15;;;14.90;99.90;;;;;;5053397;28;20049;-68
2023/07/23 00:22:53;;;;;;;9.45;6.43;;;15.00;99.90;;;;;;5053371;28;20040;-69
2023/07/23 00:25:19;;;;;;;9.70;5.85;;;14.90;99.90;;;;;;5053680;28;20056;-68
2023/07/23 00:27:44;;;;;;;7.70;5.38;;;14.90;99.90;;;;;;5053225;28;20551;-69
2023/07/23 00:30:10;;;;;;;11.73;6.47;;;14.90;99.90;;;;;;5053446;28;20093;-68
2023/07/23 00:32:36;;;;;;;7.65;6.38;;;14.80;99.90;;;;;;5035334;28;20465;-67
2023/07/23 00:35:02;;;;;;;10.93;6.97;;;14.80;99.90;;;;;;5053351;28;20048;-67
2023/07/23 00:37:28;;;;;;;8.32;6.47;;;14.80;99.90;;;;;;5053084;28;20072;-68
2023/07/23 00:39:53;;;;;;;9.75;5.85;;;14.80;99.90;;;;;;5053120;28;20057;-68
2023/07/23 00:42:21;;;;;;;9.85;7.35;;;14.80;99.90;;;;;;5053107;28;20133;-68
2023/07/23 00:44:47;;;;;;;12.25;6.78;;;14.80;99.90;;;;;;5052937;28;20041;-69
2023/07/23 00:47:13;;;;;;;9.82;7.20;;;14.70;99.90;;;;;;5053451;28;20045;-68
2023/07/23 00:49:38;;;;;;;9.65;7.72;;;14.70;99.90;;;;;;5035441;28;20464;-68
2023/07/23 00:52:06;;;;;;;7.53;6.00;;;14.70;99.90;;;;;;5052870;28;20049;-70
2023/07/23 00:54:34;;;;;;;8.82;6.40;;;14.70;99.90;;;;;;5052857;28;20106;-70
2023/07/23 00:57:02;;;;;;;8.57;6.82;;;14.70;99.90;;;;;;5052466;28;20056;-68
2023/07/23 00:59:30;;;;;;;11.18;7.07;;;14.70;99.90;;;;;;5052650;28;20049;-69
2023/07/23 01:01:57;;;;;;;10.60;7.00;;;14.70;99.90;;;;;;5052860;28;20409;-67
2023/07/23 01:04:23;;;;;;;9.63;6.70;;;14.70;99.90;;;;;;5052703;28;20052;-68
2023/07/23 01:06:50;;;;;;;6.97;5.88;;;14.70;99.90;;;;;;5052924;28;20168;-68
2023/07/23 01:09:18;;;;;;;10.00;6.70;;;14.70;99.90;;;;;;5034863;28;20534;-67
2023/07/23 01:11:44;;;;;;;8.25;7.05;;;14.70;99.90;;;;;;5052251;28;20060;-67
2023/07/23 01:14:09;;;;;;;7.85;6.40;;;14.60;99.90;;;;;;5052316;28;20600;-67
2023/07/23 01:16:36;;;;;;;9.40;6.32;;;14.70;99.90;;;;;;5052231;28;20084;-67
2023/07/23 01:19:03;;;;;;;9.57;6.68;;;14.70;99.90;;;;;;5052477;28;20198;-67
2023/07/23 01:21:29;;;;;;;11.80;7.05;;;14.60;99.90;;;;;;5052402;28;20059;-67
2023/07/23 01:23:55;;;;;;;7.47;6.13;;;14.70;99.90;;;;;;5052953;28;20132;-67
2023/07/23 01:26:21;;;;;;;9.32;6.55;;;14.70;99.90;;;;;;5052344;28;20397;-67
2023/07/23 01:28:47;;;;;;;9.07;7.05;;;14.60;99.90;;;;;;5052863;28;20045;-67
2023/07/23 01:31:13;;;;;;;10.32;7.30;;;14.70;99.90;;;;;;5052868;28;20045;-68
2023/07/23 01:33:41;;;;;;;8.73;6.47;;;14.70;99.90;;;;;;5052868;28;20511;-68
2023/07/23 01:36:08;;;;;;;8.77;7.13;;;14.70;99.90;;;;;;5034491;28;20172;-68
2023/07/23 01:38:34;;;;;;;9.65;6.85;;;14.70;99.90;;;;;;5052584;28;20056;-67
2023/07/23 01:41:01;;;;;;;7.78;6.30;;;14.70;99.90;;;;;;5052104;28;20045;-68
2023/07/23 01:43:27;;;;;;;10.15;7.40;;;14.70;99.90;;;;;;5052508;28;20103;-68
2023/07/23 01:45:53;;;;;;;11.48;7.38;;;14.70;99.90;;;;;;5034707;28;20419;-68
2023/07/23 01:48:21;;;;;;;10.77;6.75;;;14.70;99.90;;;;;;5018854;28;20465;-69
2023/07/23 01:50:47;;;;;;;10.90;7.45;;;14.70;99.90;;;;;;5053026;28;20453;-68
2023/07/23 01:53:13;;;;;;;8.50;6.20;;;14.70;99.90;;;;;;5052129;28;20044;-68
2023/07/23 01:55:39;;;;;;;9.38;6.57;;;14.70;99.90;;;;;;5034339;28;20103;-68
2023/07/23 01:58:04;;;;;;;8.70;6.35;;;14.70;99.90;;;;;;5052343;28;20047;-68
2023/07/23 02:00:30;;;;;;;9.07;6.47;;;14.70;99.90;;;;;;5035189;28;20047;-70
2023/07/23 02:02:56;;;;;;;7.40;5.75;;;14.70;99.90;;;;;;5051868;28;20529;-70
2023/07/23 02:05:22;;;;;;;9.35;5.95;;;14.90;99.90;;;;;;5052260;28;20123;-68
2023/07/23 02:07:48;;;;;;;11.00;6.82;;;14.70;99.90;;;;;;5034243;28;20041;-67
2023/07/23 02:10:14;;;;;;;8.68;5.68;;;14.70;99.90;;;;;;5054829;28;20045;-68
2023/07/23 02:12:40;;;;;;;8.07;5.85;;;14.70;99.90;;;;;;5055821;28;20052;-68
2023/07/23 02:15:06;;;;;;;9.73;6.15;;;14.70;99.90;;;;;;5056332;28;20052;-68
2023/07/23 02:17:32;;;;;;;9.82;5.85;;;14.70;99.90;;;;;;5038027;28;20136;-68
2023/07/23 02:19:57;;;;;;;6.97;5.47;;;14.70;99.90;;;;;;5055720;28;20076;-68
2023/07/23 02:22:23;;;;;;;9.35;6.20;;;14.70;99.90;;;;;;5055522;28;20094;-68
2023/07/23 02:24:49;;;;;;;7.05;6.07;;;14.80;99.90;;;;;;5055293;28;20048;-69
2023/07/23 02:27:15;;;;;;;6.50;5.30;;;14.70;99.90;;;;;;5056240;28;20081;-68
2023/07/23 02:29:41;;;;;;;10.68;7.07;;;14.70;99.90;;;;;;5055367;28;20143;-69
2023/07/23 02:32:09;;;;;;;7.78;6.20;;;14.70;99.90;;;;;;5055481;28;20052;-68
2023/07/23 02:34:34;;;;;;;9.98;5.60;;;14.70;99.90;;;;;;5037300;28;20055;-67
2023/07/23 02:37:00;;;;;;;8.20;5.55;;;14.70;99.90;;;;;;5055195;28;20048;-68
2023/07/23 02:39:26;;;;;;;7.70;5.32;;;14.70;99.90;;;;;;5055189;28;20056;-69
2023/07/23 02:41:51;;;;;;;9.52;5.13;;;14.70;99.90;;;;;;5055066;28;20090;-68
2023/07/23 02:44:17;;;;;;;7.82;5.20;;;14.70;99.90;;;;;;5054761;28;20095;-68
2023/07/23 02:46:43;;;;;;;8.70;5.78;;;14.70;99.90;;;;;;5055200;28;20049;-68
2023/07/23 02:49:08;;;;;;;9.30;5.55;;;14.70;99.90;;;;;;5055142;28;20404;-68
2023/07/23 02:51:34;;;;;;;9.20;5.97;;;14.70;99.90;;;;;;5055565;28;20053;-68
2023/07/23 02:54:00;;;;;;;8.25;6.05;;;14.70;99.90;;;;;;5055567;28;20469;-69
2023/07/23 02:56:25;;;;;;;9.00;6.70;;;14.70;99.90;;;;;;5054807;28;20479;-67
2023/07/23 02:58:51;;;;;;;9.10;6.18;;;14.70;99.90;;;;;;5055319;28;20067;-68
2023/07/23 03:01:17;;;;;;;8.88;6.00;;;14.70;99.90;;;;;;5054848;28;20088;-69
2023/07/23 03:03:47;;;;;;;9.80;6.38;;;14.70;99.90;;;;;;5054878;28;20037;-69
2023/07/23 03:06:13;;;;;;;8.95;5.78;;;14.70;99.90;;;;;;5054868;28;20041;-69
2023/07/23 03:08:39;;;;;;;10.00;6.53;;;14.70;99.90;;;;;;5054768;28;20081;-68
2023/07/23 03:11:06;;;;;;;13.35;6.80;;;14.70;99.90;;;;;;5054367;28;20099;-68
2023/07/23 03:13:31;;;;;;;9.32;7.20;;;14.70;99.90;;;;;;5054952;28;20094;-69
2023/07/23 03:15:57;;;;;;;10.88;6.63;;;14.70;99.90;;;;;;5054602;28;20443;-68
2023/07/23 03:18:23;;;;;;;11.73;7.03;;;14.70;99.90;;;;;;5054625;28;20079;-68
2023/07/23 03:20:49;;;;;;;14.32;7.20;;;14.70;99.90;;;;;;5054332;28;20049;-68
2023/07/23 03:23:15;;;;;;;12.15;7.75;;;14.70;99.90;;;;;;5054235;28;20462;-68
2023/07/23 03:25:40;;;;;;;11.15;8.25;;;14.70;99.90;;;;;;5054753;28;20092;-68
2023/07/23 03:28:06;;;;;;;11.35;8.20;;;14.70;99.90;;;;;;5054817;28;20049;-69
2023/07/23 03:30:32;;;;;;;10.57;7.13;;;14.70;99.90;;;;;;5055043;28;20048;-69
2023/07/23 03:32:57;;;;;;;11.27;8.15;;;14.70;99.90;;;;;;5054726;28;20475;-69
2023/07/23 03:35:23;;;;;;;12.30;8.60;;;14.70;99.90;;;;;;5036601;28;20462;-68
2023/07/23 03:37:49;;;;;;;12.88;7.70;;;14.70;99.90;;;;;;5054716;28;20423;-69
2023/07/23 03:40:15;;;;;;;11.82;8.48;;;14.70;99.90;;;;;;5054749;28;20052;-68
2023/07/23 03:42:40;;;;;;;12.75;7.47;;;14.70;99.90;;;;;;5054026;28;20053;-68
2023/07/23 03:45:07;;;;;;;10.30;7.25;;;14.80;99.90;;;;;;5054088;28;20124;-67
2023/07/23 03:47:32;;;;;;;12.65;8.98;;;14.70;99.90;;;;;;5054414;28;20056;-69
2023/07/23 03:49:59;;;;;;;12.90;7.05;;;14.70;99.90;;;;;;5036432;28;20140;-68
2023/07/23 03:52:25;;;;;;;13.75;7.97;;;14.70;99.90;;;;;;5036445;28;20131;-68
2023/07/23 03:54:50;;;;;;;10.65;7.95;;;14.70;99.90;;;;;;5053806;28;20080;-68
2023/07/23 03:57:16;;;;;;;12.40;8.05;;;14.70;99.90;;;;;;5036038;28;20124;-68
2023/07/23 03:59:43;;;;;;;10.85;7.28;;;14.70;99.90;;;;;;5036506;28;20059;-69
2023/07/23 04:02:09;;;;;;;8.40;7.00;;;14.80;99.90;;;;;;5053979;28;20052;-68
2023/07/23 04:04:37;;;;;;;12.15;7.53;;;14.80;99.90;;;;;;5053758;28;20053;-68
2023/07/23 04:07:03;;;;;;;10.50;7.22;;;14.80;99.90;;;;;;5053964;28;20102;-69
2023/07/23 04:09:29;;;;;;;12.02;7.10;;;14.80;99.90;;;;;;5053559;28;20080;-69
2023/07/23 04:11:55;;;;;;;10.75;7.53;;;14.80;99.90;;;;;;5053380;28;20061;-70
2023/07/23 04:14:21;;;;;;;12.75;8.43;;;14.80;99.90;;;;;;5053825;28;20056;-68
2023/07/23 04:16:48;;;;;;;13.68;8.68;;;14.80;99.90;;;;;;5053463;28;20044;-69
2023/07/23 04:19:14;;;;;;;11.98;7.05;;;14.80;99.90;;;;;;5053545;28;20094;-69
2023/07/23 04:21:40;;;;;;;8.38;6.50;;;14.70;99.90;;;;;;5053379;28;20045;-69
2023/07/23 04:24:06;;;;;;;16.60;6.97;;;14.80;99.90;;;;;;5053393;28;20041;-68
2023/07/23 04:26:32;;;;;;;11.05;7.05;;;14.80;99.90;;;;;;5053336;28;20102;-68
2023/07/23 04:28:58;;;;;;;11.27;7.30;;;14.80;99.90;;;;;;5053286;28;20052;-69
2023/07/23 04:31:24;;;;;;;8.95;6.75;;;14.80;99.90;;;;;;5053078;28;20051;-68
2023/07/23 04:33:50;;;;;;;9.45;7.20;;;14.80;99.90;;;;;;5053009;28;20136;-68
2023/07/23 04:36:16;;;;;;;8.32;7.38;;;14.80;99.90;;;;;;5052716;28;20049;-68
2023/07/23 04:38:42;;;;;;;12.90;8.43;;;14.80;99.90;;;;;;5053067;28;20132;-68
2023/07/23 04:41:09;;;;;;;11.35;7.35;;;14.80;99.90;;;;;;5053094;28;20070;-68
2023/07/23 04:43:36;;;;;;;12.02;8.52;;;14.90;99.90;;;;;;5053326;28;20041;-69
2023/07/23 04:46:04;;;;;;;10.98;7.32;;;14.90;99.90;;;;;;5052993;28;20041;-69
2023/07/23 04:48:31;;;;;;;12.13;6.38;;;14.90;99.90;;;;;;5053197;28;20052;-69
2023/07/23 04:51:02;;;;;;;11.52;7.72;;;14.90;99.90;;;;;;5035933;28;20049;-69
2023/07/23 04:53:29;;;;;;;12.23;8.13;;;14.90;99.90;;;;;;5052945;28;20074;-70
2023/07/23 04:55:56;;;;;;;10.00;6.88;;;14.90;99.90;;;;;;5052867;28;20116;-71
2023/07/23 04:58:23;;;;;;;11.02;8.18;;;14.90;99.90;;;;;;5052824;28;20048;-70
2023/07/23 05:00:48;;;;;;;10.43;7.68;;;14.90;99.90;;;;;;5052616;28;20047;-69
2023/07/23 05:03:15;;;;;;;12.85;7.25;;;14.90;99.90;;;;;;5019400;28;20048;-70
2023/07/23 05:05:43;;;;;;;9.73;7.68;;;14.90;99.90;;;;;;5052635;28;20058;-70
2023/07/23 05:08:09;;;;;;;9.93;7.85;;;14.90;99.90;;;;;;5052690;28;20053;-70
2023/07/23 05:10:35;;;;;;;10.65;7.18;;;15.00;99.90;;;;;;5054838;28;20041;-71
2023/07/23 05:13:01;;;;;;;12.10;8.50;;;15.00;99.90;;;;;;5038085;28;20069;-70
2023/07/23 05:15:26;;;;;;;12.50;8.32;;;14.90;99.90;;;;;;5055347;28;20049;-70
2023/07/23 05:17:52;;;;;;;12.45;8.48;;;15.00;99.90;;;;;;5054842;28;20045;-70
2023/07/23 05:20:18;;;;;;;11.13;7.72;;;15.00;99.90;;;;;;5053811;28;20041;-71
2023/07/23 05:22:44;;;;;;;11.95;8.27;;;15.00;99.90;;;;;;5052668;28;20041;-70
2023/07/23 05:25:10;;;;;;;12.63;7.97;;;15.00;99.90;;;;;;5052421;28;20477;-71
2023/07/23 05:27:35;;;;;;;11.15;8.13;;;15.00;99.90;;;;;;5052811;28;20056;-70
2023/07/23 05:30:01;;;;;;;10.50;8.90;;;15.00;99.90;;;;;;5052349;28;20073;-70
2023/07/23 05:32:27;;;;;;;11.82;8.23;;;15.00;99.90;;;;;;5052488;28;20052;-69
2023/07/23 05:34:56;;;;;;;13.45;9.05;;;15.00;99.90;;;;;;5052259;28;20041;-70
2023/07/23 05:37:23;;;;;;;12.02;8.40;;;15.00;99.90;;;;;;5052193;28;20480;-70
2023/07/23 05:39:49;;;;;;;10.38;8.18;;;15.10;99.90;;;;;;5052304;28;20095;-70
2023/07/23 05:42:14;;;;;;;10.20;8.43;;;15.10;99.90;;;;;;5035055;28;20086;-70
2023/07/23 05:44:40;;;;;;;14.35;9.48;;;15.10;99.90;;;;;;5037480;28;20044;-70
2023/07/23 05:47:06;;;;;;;14.10;8.75;;;15.00;99.90;;;;;;5056323;28;20080;-70
2023/07/23 05:49:31;;;;;;;12.27;7.97;;;15.10;99.90;;;;;;5056278;28;20076;-70
2023/07/23 05:52:00;;;;;;;10.70;8.27;;;15.10;99.90;;;;;;5056226;28;20516;-71
2023/07/23 05:54:27;;;;;;;12.10;8.45;;;15.10;99.90;;;;;;5056361;28;20052;-70
2023/07/23 05:56:52;;;;;;;15.13;10.38;;;15.10;99.90;;;;;;5056113;28;20050;-70
2023/07/23 05:59:18;;;;;;;11.82;8.93;;;15.10;99.90;;;;;;5056045;28;20047;-70
2023/07/23 06:01:44;;;;;;;11.68;8.50;;;15.20;99.90;;;;;;5055990;28;20218;-71
2023/07/23 06:04:10;;;;;;;12.60;9.13;;;15.20;99.90;;;;;;5056618;28;20152;-71
2023/07/23 06:06:36;;;;;;;9.50;8.07;;;15.20;99.90;;;;;;5055923;28;20383;-70
2023/07/23 06:09:03;;;;;;;15.13;9.57;;;15.20;99.90;;;;;;5055571;28;20053;-71
2023/07/23 06:11:30;;;;;;;19.67;11.15;;;15.20;99.90;;;;;;5055491;28;20112;-71
2023/07/23 06:13:56;;;;;;;13.40;9.43;;;15.30;99.90;;;;;;5056306;28;20049;-70
2023/07/23 06:16:22;;;;;;;13.05;9.23;;;15.30;99.90;;;;;;5055587;28;20063;-70
2023/07/23 06:18:47;;;;;;;13.90;9.45;;;15.30;99.90;;;;;;5055654;28;20044;-69
2023/07/23 06:21:13;;;;;;;12.93;9.50;;;15.40;99.90;;;;;;5055370;28;20049;-69
2023/07/23 06:23:39;;;;;;;16.05;10.60;;;15.40;99.90;;;;;;5038231;28;20052;-69
2023/07/23 06:26:04;;;;;;;15.80;8.50;;;15.50;99.90;;;;;;5055258;28;20052;-69
2023/07/23 06:28:31;;;;;;;11.80;8.52;;;15.50;99.90;;;;;;5055557;28;20049;-69
2023/07/23 06:30:57;;;;;;;14.68;9.35;;;15.60;99.90;;;;;;5055854;28;20136;-69
2023/07/23 06:33:22;;;;;;;10.88;9.02;;;15.70;99.90;;;;;;5055157;28;20486;-70
2023/07/23 06:35:48;;;;;;;13.00;9.45;;;15.80;99.90;;;;;;5055345;28;20044;-70
2023/07/23 06:38:15;;;;;;;10.60;9.00;;;15.80;99.90;;;;;;5055358;28;20563;-69
2023/07/23 06:40:51;;;;;;;12.98;8.32;;;15.80;99.90;;;;;;5055276;28;20053;-70
2023/07/23 06:43:17;;;;;;;12.82;9.60;;;15.80;99.90;;;;;;5055528;28;20103;-69
2023/07/23 06:45:47;;;;;;;14.15;9.15;;;15.90;99.90;;;;;;5055179;28;20049;-69
2023/07/23 06:48:14;;;;;;;14.15;10.00;;;15.90;99.90;;;;;;5054938;28;20429;-70
2023/07/23 06:50:40;;;;;;;13.55;8.93;;;15.90;99.90;;;;;;5055510;28;20439;-69
2023/07/23 06:53:06;;;;;;;13.52;8.73;;;16.00;99.90;;;;;;5055139;28;20048;-69
2023/07/23 06:56:00;;;;;;;13.18;8.98;;;16.00;99.90;;;;;;5054272;28;20037;-70
2023/07/23 06:58:28;;;;;;;12.00;9.35;;;16.00;99.90;;;;;;5039701;28;20045;-69
2023/07/23 07:00:54;;;;;;;15.60;9.05;;;16.00;99.90;;;;;;5037604;28;20049;-69
2023/07/23 07:03:20;;;;;;;14.98;9.48;;;16.00;99.90;;;;;;5054924;28;20037;-69
2023/07/23 07:05:46;;;;;;;11.52;8.85;;;16.00;99.90;;;;;;5037241;28;20048;-70
2023/07/23 07:08:12;;;;;;;14.20;8.98;;;16.00;99.90;;;;;;5054874;28;20048;-69
2023/07/23 07:10:38;;;;;;;11.45;9.63;;;16.00;99.90;;;;;;5054736;28;20049;-69
2023/07/23 07:13:03;;;;;;;14.65;9.20;;;16.00;99.90;;;;;;5036499;28;20091;-70
2023/07/23 07:15:29;;;;;;;14.63;8.82;;;16.00;99.90;;;;;;5055131;28;20081;-69
2023/07/23 07:17:55;;;;;;;14.48;10.88;;;16.00;99.90;;;;;;5054873;28;20080;-69
2023/07/23 07:20:22;;;;;;;13.45;9.68;;;16.10;99.90;;;;;;5055013;28;20106;-69
2023/07/23 07:22:48;;;;;;;12.82;9.40;;;16.10;99.90;;;;;;5054752;28;20053;-70
2023/07/23 07:25:14;;;;;;;14.73;11.25;;;16.20;99.90;;;;;;5054531;28;20048;-69
2023/07/23 07:27:39;;;;;;;16.30;10.35;;;16.20;99.90;;;;;;5054484;28;20036;-69
2023/07/23 07:30:06;;;;;;;14.80;9.55;;;16.20;99.90;;;;;;5054453;28;20474;-69
2023/07/23 07:32:31;;;;;;;14.85;10.30;;;16.30;99.90;;;;;;5054494;28;20124;-70
2023/07/23 07:34:57;;;;;;;11.75;9.10;;;16.40;99.90;;;;;;5054220;28;20083;-73
2023/07/23 07:37:23;;;;;;;13.52;10.05;;;16.40;99.90;;;;;;5055006;28;20048;-72
2023/07/23 07:39:48;;;;;;;14.52;8.95;;;16.40;99.90;;;;;;5054753;28;20461;-70
2023/07/23 07:42:14;;;;;;;11.25;9.15;;;16.50;99.90;;;;;;5054311;28;20049;-71
2023/07/23 07:44:40;;;;;;;13.02;8.98;;;16.50;99.90;;;;;;5054281;28;20362;-69
2023/07/23 07:47:05;;;;;;;19.85;9.65;;;16.50;99.90;;;;;;5054956;28;20040;-69
2023/07/23 07:49:31;;;;;;;14.35;8.98;;;16.50;99.90;;;;;;5054378;28;20045;-69
2023/07/23 07:51:57;;;;;;;12.45;9.13;;;16.50;99.90;;;;;;5037251;28;20083;-70
2023/07/23 07:54:23;;;;;;;16.35;10.38;;;16.50;99.90;;;;;;5054534;28;20048;-69
2023/07/23 07:56:49;;;;;;;12.98;9.27;;;16.50;99.90;;;;;;5053953;28;20482;-70
2023/07/23 07:59:16;;;;;;;12.07;8.88;;;16.60;99.90;;;;;;5053947;28;20084;-70
2023/07/23 08:01:41;;;;;;;18.15;9.25;;;16.60;99.90;;;;;;5053839;28;20045;-71
2023/07/23 08:04:10;;;;;;;14.18;8.88;;;16.60;99.90;;;;;;5054241;28;20080;-69
2023/07/23 08:06:37;;;;;;;15.13;9.88;;;16.60;99.90;;;;;;5052480;28;20044;-70
2023/07/23 08:09:04;;;;;;;10.68;8.40;;;16.60;99.90;;;;;;5053567;28;20056;-70
2023/07/23 08:11:31;;;;;;;12.50;8.43;;;16.70;99.90;;;;;;5053386;28;20049;-71
2023/07/23 08:13:57;;;;;;;14.68;9.55;;;16.70;99.90;;;;;;5053828;28;20088;-69
2023/07/23 08:16:23;;;;;;;10.52;8.25;;;16.60;99.90;;;;;;5053575;28;20068;-70
2023/07/23 08:18:49;;;;;;;11.85;8.45;;;16.60;99.90;;;;;;5053060;28;20485;-74
2023/07/23 08:21:15;;;;;;;11.82;8.90;;;16.50;99.90;;;;;;5019100;28;20502;-75
2023/07/23 08:23:41;;;;;;;13.32;9.00;;;16.50;99.90;;;;;;5053079;28;20057;-74
2023/07/23 08:26:07;;;;;;;14.10;8.40;;;16.50;99.90;;;;;;5053262;28;20052;-75
2023/07/23 08:28:37;;;;;;;9.43;8.07;;;16.40;99.90;;;;;;5052972;28;20124;-73
2023/07/23 08:31:03;;;;;;;12.98;8.73;;;16.50;99.90;;;;;;5035406;28;20044;-69
2023/07/23 08:33:31;;;;;;;15.95;9.07;;;16.50;99.90;;;;;;5052903;28;20123;-69
2023/07/23 08:35:57;;;;;;;12.35;9.18;;;16.50;99.90;;;;;;5052834;28;20041;-69
2023/07/23 08:38:24;;;;;;;12.73;8.65;;;16.50;99.90;;;;;;5053039;28;20052;-69
2023/07/23 08:40:57;;;;;;;12.40;8.90;;;16.60;99.90;;;;;;5053004;28;20134;-69
2023/07/23 08:43:48;;;;;;;13.20;8.35;;;16.60;99.90;;;;;;5053152;28;20045;-70
2023/07/23 08:46:21;;;;;;;11.95;8.88;;;16.60;99.90;;;;;;5053121;28;20044;-71
2023/07/23 08:48:56;;;;;;;11.35;8.15;;;16.60;99.90;;;;;;5053209;28;20199;-69
2023/07/23 08:51:29;;;;;;;11.35;8.18;;;16.60;99.90;;;;;;5052648;28;20045;-69
2023/07/23 08:53:57;;;;;;;9.95;7.70;;;16.60;99.90;;;;;;5052600;28;20053;-71
2023/07/23 08:56:23;;;;;;;11.48;7.70;;;16.60;99.90;;;;;;5052577;28;20041;-71
2023/07/23 08:58:49;;;;;;;9.60;7.63;;;16.60;99.90;;;;;;5052902;28;20049;-70
2023/07/23 09:01:16;;;;;;;10.82;8.27;;;16.50;99.90;;;;;;5052569;28;20122;-75
2023/07/23 09:03:42;;;;;;;11.05;7.60;;;16.50;99.90;;;;;;5053042;28;20122;-71
2023/07/23 09:06:10;;;;;;;9.95;7.50;;;16.50;99.90;;;;;;5035502;28;20127;-71
2023/07/23 09:08:36;;;;;;;10.52;7.97;;;16.50;99.90;;;;;;5053034;28;20080;-70
2023/07/23 09:11:04;;;;;;;9.13;6.90;;;16.50;99.90;;;;;;5052487;28;20107;-70
2023/07/23 09:13:35;;;;;;;11.05;7.07;;;16.50;99.90;;;;;;5052544;28;20061;-70
2023/07/23 09:16:01;;;;;;;11.27;8.57;;;16.50;99.90;;;;;;5052512;28;20048;-71
2023/07/23 09:18:27;;;;;;;8.82;7.22;;;16.60;99.90;;;;;;5051502;28;20055;-70
2023/07/23 09:20:53;;;;;;;10.82;7.57;;;16.60;99.90;;;;;;5052646;28;20556;-70
2023/07/23 09:23:19;;;;;;;10.32;7.70;;;16.50;99.90;;;;;;5052672;28;20037;-70
2023/07/23 09:25:44;;;;;;;11.43;7.32;;;16.60;99.90;;;;;;5052399;28;20056;-70
2023/07/23 09:28:26;;;;;;;10.02;7.18;;;16.60;99.90;;;;;;5052149;28;20565;-71
2023/07/23 09:30:54;;;;;;;11.85;7.85;;;16.60;99.90;;;;;;5052572;28;20048;-70
2023/07/23 09:33:20;;;;;;;10.95;7.57;;;16.70;99.90;;;;;;5052823;28;20049;-70
2023/07/23 09:35:46;;;;;;;7.35;6.32;;;16.80;99.90;;;;;;5052086;28;20098;-70
2023/07/23 09:38:15;;;;;;;10.10;7.75;;;16.90;99.90;;;;;;5052514;28;20080;-70
2023/07/23 09:40:42;;;;;;;11.70;7.68;;;16.90;99.90;;;;;;5051996;28;20056;-70
2023/07/23 09:43:08;;;;;;;10.55;7.35;;;17.00;99.90;;;;;;5051986;28;20045;-70
2023/07/23 09:45:43;;;;;;;12.63;8.15;;;17.00;99.90;;;;;;5035028;28;20389;-71
2023/07/23 09:48:13;;;;;;;10.32;7.60;;;17.00;99.90;;;;;;5052410;28;20045;-70
2023/07/23 09:50:39;;;;;;;9.13;6.43;;;17.00;99.90;;;;;;5052752;28;20041;-70
2023/07/23 09:53:08;;;;;;;8.77;5.90;;;17.00;99.90;;;;;;5034368;28;20527;-70
2023/07/23 09:55:36;;;;;;;11.07;6.25;;;17.00;99.90;;;;;;5052261;28;20041;-70
2023/07/23 09:58:02;;;;;;;6.43;5.53;;;17.10;99.90;;;;;;5052698;28;20088;-70
2023/07/23 10:00:29;;;;;;;8.65;6.00;;;17.00;99.90;;;;;;5052588;28;20048;-69
2023/07/23 10:02:57;;;;;;;6.90;5.63;;;17.00;99.90;;;;;;5051955;28;20048;-70
2023/07/23 10:05:25;;;;;;;8.60;6.65;;;16.90;99.90;;;;;;5052010;28;20056;-69
2023/07/23 10:07:53;;;;;;;10.23;6.22;;;16.90;99.90;;;;;;5052338;28;20053;-69
2023/07/23 10:10:19;;;;;;;10.93;6.05;;;16.90;99.90;;;;;;5052716;28;20485;-70
2023/07/23 10:12:44;;;;;;;8.27;6.47;;;16.90;99.90;;;;;;5053689;28;20064;-71
2023/07/23 10:15:10;;;;;;;8.63;6.95;;;16.90;99.90;;;;;;5054818;28;20076;-68
2023/07/23 10:17:49;;;;;;;8.65;6.53;;;16.90;99.90;;;;;;5056178;28;20049;-68
2023/07/23 10:20:17;;;;;;;9.30;5.72;;;16.90;99.90;;;;;;5053229;28;20060;-68
2023/07/23 10:22:48;;;;;;;10.27;7.10;;;16.90;99.90;;;;;;5034869;28;20055;-69
2023/07/23 10:25:30;;;;;;;7.13;5.53;;;16.90;99.90;;;;;;5052460;28;20087;-69
2023/07/23 10:28:07;;;;;;;8.85;6.60;;;16.90;99.90;;;;;;5035313;28;20123;-68
2023/07/23 10:30:34;;;;;;;7.93;6.18;;;16.90;99.90;;;;;;5019886;28;20052;-68
2023/07/23 10:33:11;;;;;;;7.57;5.95;;;16.90;99.90;;;;;;5056102;28;20041;-68
2023/07/23 10:35:54;;;;;;;9.77;6.72;;;16.90;99.90;;;;;;5038936;28;20128;-69
2023/07/23 10:38:33;;;;;;;7.65;5.85;;;17.00;99.90;;;;;;5056370;28;20483;-69
2023/07/23 10:41:00;;;;;;;6.75;4.95;;;17.00;99.90;;;;;;5055872;28;20134;-69
2023/07/23 10:43:40;;;;;;;8.30;6.97;;;17.10;99.90;;;;;;5056370;28;20045;-69
2023/07/23 10:46:08;;;;;;;8.10;5.78;;;17.00;99.90;;;;;;5056299;28;20044;-69
2023/07/23 10:48:37;;;;;;;8.30;5.90;;;17.10;99.90;;;;;;5055933;28;20051;-69
2023/07/23 10:51:07;;;;;;;7.18;6.00;;;17.10;99.90;;;;;;5055505;28;20084;-69
2023/07/23 10:53:37;;;;;;;8.27;5.93;;;17.10;99.90;;;;;;5055719;28;20045;-70
2023/07/23 10:56:02;;;;;;;7.20;5.07;;;17.20;99.90;;;;;;5055351;28;20045;-71
2023/07/23 10:58:28;;;;;;;7.85;5.75;;;17.20;99.90;;;;;;5056302;28;20132;-69
2023/07/23 11:00:59;;;;;;;7.15;5.60;;;17.20;99.90;;;;;;5055288;28;20072;-69
2023/07/23 11:03:26;;;;;;;7.03;5.47;;;17.20;99.90;;;;;;5037921;28;20048;-69
2023/07/23 11:05:53;;;;;;;6.78;5.78;;;17.30;99.90;;;;;;5054886;28;20076;-70
2023/07/23 11:08:26;;;;;;;7.10;5.70;;;17.30;99.90;;;;;;5037408;28;20045;-72
2023/07/23 11:11:01;;;;;;;6.57;5.63;;;17.30;99.90;;;;;;5055058;28;20072;-71
2023/07/23 11:13:32;;;;;;;7.45;6.05;;;17.40;99.90;;;;;;5054553;28;20064;-72
2023/07/23 11:15:59;;;;;;;6.57;5.57;;;17.40;99.90;;;;;;5055350;28;20044;-72
2023/07/23 11:18:25;;;;;;;7.70;5.28;;;17.40;99.90;;;;;;5055466;28;20045;-72
2023/07/23 11:20:53;;;;;;;8.27;6.10;;;17.40;99.90;;;;;;5038086;28;20136;-72
2023/07/23 11:23:22;;;;;;;8.52;7.32;;;17.40;99.90;;;;;;5055675;28;20060;-73
2023/07/23 11:25:49;;;;;;;8.18;5.68;;;17.40;99.90;;;;;;5037478;28;20056;-72
2023/07/23 11:28:20;;;;;;;9.05;6.65;;;17.50;99.90;;;;;;5054606;28;20055;-72
2023/07/23 11:30:50;;;;;;;7.53;5.55;;;17.60;99.90;;;;;;5054414;28;20127;-72
2023/07/23 11:33:16;;;;;;;9.45;6.03;;;17.60;99.90;;;;;;5054409;28;20515;-73
2023/07/23 11:35:43;;;;;;;9.38;6.82;;;17.60;99.90;;;;;;5054838;28;20510;-72
2023/07/23 11:38:09;;;;;;;8.57;6.53;;;17.60;99.90;;;;;;5054206;28;20045;-72
2023/07/23 11:40:35;;;;;;;7.82;6.20;;;17.70;99.90;;;;;;5054089;28;20051;-72
2023/07/23 11:43:05;;;;;;;8.85;5.60;;;17.80;99.90;;;;;;5054226;28;20608;-72
2023/07/23 11:45:30;;;;;;;8.93;6.47;;;17.70;99.90;;;;;;5054502;28;20175;-72
2023/07/23 11:47:56;;;;;;;7.18;6.05;;;17.70;99.90;;;;;;5054244;28;20072;-71
2023/07/23 11:50:23;;;;;;;9.10;6.50;;;17.60;99.90;;;;;;5054510;28;20458;-72
2023/07/23 11:52:50;;;;;;;10.68;7.13;;;17.70;99.90;;;;;;5054075;28;20052;-72
2023/07/23 11:55:23;;;;;;;7.63;6.07;;;17.60;99.90;;;;;;5054141;28;20143;-72
2023/07/23 11:57:59;;;;;;;8.98;6.22;;;17.70;99.90;;;;;;5036284;28;20096;-72
2023/07/23 12:00:39;;;;;;;10.82;7.05;;;17.70;99.90;;;;;;5036329;28;20056;-72
2023/07/23 12:03:09;;;;;;;9.70;7.10;;;17.70;99.90;;;;;;5053867;28;20125;-72
2023/07/23 12:05:44;;;;;;;8.15;6.57;;;17.70;99.90;;;;;;5053839;28;20041;-72
2023/07/23 12:08:11;;;;;;;10.63;6.85;;;17.60;99.90;;;;;;5053788;28;20128;-73
2023/07/23 12:10:37;;;;;;;8.85;6.90;;;17.50;99.90;;;;;;5053970;28;20076;-72
2023/07/23 12:13:10;;;;;;;8.43;6.57;;;17.60;99.90;;;;;;5053564;28;20053;-72
2023/07/23 12:15:40;;;;;;;;;;;17.50;99.90;;;;;;5053857;28;20474;-72
2023/07/23 12:18:08;;;;;;;7.50;6.47;;;17.50;99.90;;;;;;5053655;28;19920;-73
2023/07/23 12:20:34;;;;;;;9.48;6.47;;;17.50;99.90;;;;;;5035872;28;20441;-73
2023/07/23 12:23:01;;;;;;;14.45;6.90;;;17.60;99.90;;;;;;5035471;28;20127;-74
2023/07/23 12:25:27;;;;;;;7.50;6.03;;;17.60;99.90;;;;;;5053350;28;20076;-73
2023/07/23 12:27:53;;;;;;;9.70;6.70;;;17.60;99.90;;;;;;5053668;28;20052;-73
2023/07/23 12:30:20;;;;;;;7.05;6.00;;;17.70;99.90;;;;;;5035286;28;20049;-73
2023/07/23 12:32:46;;;;;;;7.55;6.30;;;17.80;99.90;;;;;;5053255;28;20114;-72
2023/07/23 12:35:12;;;;;;;9.02;5.93;;;17.90;99.90;;;;;;5053134;28;20051;-73
2023/07/23 12:37:38;;;;;;;8.52;6.00;;;18.20;99.90;;;;;;5035900;28;20120;-74
2023/07/23 12:40:05;;;;;;;6.72;5.43;;;18.50;99.90;;;;;;5053162;28;20128;-71